Oudewater, Netherlands
Current Conditions -  °F | °C
As of 9:25 PM on Monday 24 Nov 2014 (Local Time) from EHRD Reporting Station
Clear Clear  
Wind Chill: 37°   Ceiling: Unl
Heat Index: 37°   Visibility: 6mi
Dew Point: 37°   Wind: 1mph
Humidity: 100%   Direction: 180°S
Pressure: 30.33"   Gusts: NA
Location:  52.03°N, 4.87°E
Report Text: EHRD 242025Z AUTO 18001KT 9999 NCD 03/03 Q1027 NOSIG
Loading
Personal Weather Stations






























Interactive Weather Map New forecast layout! Learn more

10-Day Weather Forecast

Advertisements
Track Severe Weather on mobile